createdAt,value
2023-04-03T00:00:35.457Z,-5.94
2023-04-03T00:03:39.534Z,-5.35
2023-04-03T00:06:42.879Z,-4.60
2023-04-03T00:09:46.157Z,-3.67
2023-04-03T00:12:49.531Z,-3.69
2023-04-03T00:15:53.553Z,-3.70
2023-04-03T00:18:56.909Z,-2.84
2023-04-03T00:22:00.198Z,-2.72
2023-04-03T00:25:03.458Z,-3.15
2023-04-03T00:28:07.120Z,-3.62
2023-04-03T00:31:10.623Z,-3.31
2023-04-03T00:34:13.890Z,-2.30
2023-04-03T00:37:17.136Z,-2.01
2023-04-03T00:40:21.470Z,-1.30
2023-04-03T00:43:28.210Z,-1.17
2023-04-03T00:46:31.755Z,-0.89
2023-04-03T00:49:35.242Z,-1.63
2023-04-03T00:52:40.079Z,-1.35
2023-04-03T00:55:44.001Z,-1.47
2023-04-03T00:58:59.490Z,-1.37
2023-04-03T01:02:03.037Z,-1.96
2023-04-03T01:05:07.868Z,-2.14
2023-04-03T01:08:11.346Z,-2.70
2023-04-03T01:11:15.491Z,-3.01
2023-04-03T01:14:19.762Z,-2.88
2023-04-03T01:17:32.226Z,-3.18
2023-04-03T01:20:45.283Z,-3.12
2023-04-03T01:23:58.241Z,-3.35
2023-04-03T01:27:04.801Z,-3.84
2023-04-03T01:30:09.550Z,-3.67
2023-04-03T01:33:13.098Z,-3.81
2023-04-03T01:36:22.266Z,-3.84
2023-04-03T01:39:25.952Z,-3.64
2023-04-03T01:42:29.554Z,-3.53
2023-04-03T01:45:32.939Z,-3.34
2023-04-03T01:48:36.608Z,-3.41
2023-04-03T01:51:39.999Z,-3.24
2023-04-03T01:54:43.286Z,-3.04
2023-04-03T01:57:47.174Z,-3.03
2023-04-03T02:00:50.785Z,-3.24
2023-04-03T02:03:54.552Z,-3.01
2023-04-03T02:06:58.008Z,-3.08
2023-04-03T02:10:02.011Z,-3.05
2023-04-03T02:13:05.648Z,-2.62
2023-04-03T02:16:11.703Z,-2.68
2023-04-03T02:19:15.543Z,-2.52
2023-04-03T02:22:19.422Z,-2.65
2023-04-03T02:25:23.007Z,-2.24
2023-04-03T02:28:27.460Z,-2.28
2023-04-03T02:31:30.866Z,-2.56
2023-04-03T02:34:36.761Z,-2.30
2023-04-03T02:37:41.310Z,-2.42
2023-04-03T02:40:45.074Z,-2.22
2023-04-03T02:43:48.364Z,-1.86
2023-04-03T02:46:52.842Z,-1.79
2023-04-03T02:49:56.271Z,-1.94
2023-04-03T02:52:59.737Z,-2.20
2023-04-03T02:56:03.273Z,-2.66
2023-04-03T02:59:06.996Z,-2.48
2023-04-03T03:02:13.113Z,-2.48
2023-04-03T03:05:16.818Z,-2.55
2023-04-03T03:08:21.860Z,-2.38
2023-04-03T03:11:25.283Z,-2.56
2023-04-03T03:14:29.751Z,-2.28
2023-04-03T03:17:33.186Z,-2.15
2023-04-03T03:20:37.047Z,-2.30
2023-04-03T03:23:41.297Z,-2.11
2023-04-03T03:26:44.918Z,-1.87
2023-04-03T03:29:49.191Z,-1.85
2023-04-03T03:32:53.270Z,-1.73
2023-04-03T03:35:57.658Z,-1.62
2023-04-03T03:39:01.185Z,-1.44
2023-04-03T03:42:05.236Z,-1.35
2023-04-03T03:45:09.552Z,-1.28
2023-04-03T03:48:13.318Z,-1.13
2023-04-03T03:51:17.450Z,-1.11
2023-04-03T03:54:20.999Z,-0.93
2023-04-03T03:57:24.495Z,-0.62
2023-04-03T04:00:27.920Z,-1.04
2023-04-03T04:03:33.301Z,-1.10
2023-04-03T04:06:36.804Z,-0.62
2023-04-03T04:09:42.678Z,-0.58
2023-04-03T04:12:51.009Z,-0.72
2023-04-03T04:15:58.410Z,-0.97
2023-04-03T04:22:02.483Z,-0.37
2023-04-03T04:25:08.165Z,-0.37
2023-04-03T04:28:12.880Z,-0.25
2023-04-03T04:31:16.527Z,-0.38
2023-04-03T04:34:19.874Z,-0.42
2023-04-03T04:37:24.085Z,-0.55
2023-04-03T04:40:28.557Z,-0.69
2023-04-03T04:43:32.357Z,-0.79
2023-04-03T04:46:36.104Z,-0.97
2023-04-03T04:49:39.938Z,-0.76
2023-04-03T04:52:43.378Z,-0.64
2023-04-03T04:55:46.869Z,-0.80
2023-04-03T04:58:50.412Z,-0.75
2023-04-03T05:01:56.552Z,-0.86
2023-04-03T05:05:00.008Z,-1.04
2023-04-03T05:08:06.819Z,-1.20
2023-04-03T05:11:10.366Z,-1.25
2023-04-03T05:14:15.270Z,-1.17
2023-04-03T05:17:18.631Z,-1.24
2023-04-03T05:20:27.284Z,-0.94
2023-04-03T05:23:31.180Z,-0.52
2023-04-03T05:26:37.628Z,-0.65
2023-04-03T05:29:42.605Z,-0.58
2023-04-03T05:32:50.595Z,-0.52
2023-04-03T05:36:05.348Z,-0.89
2023-04-03T05:39:12.867Z,-1.00
2023-04-03T05:42:19.272Z,-0.86
2023-04-03T05:45:22.605Z,-1.13
2023-04-03T05:48:25.968Z,-1.22
2023-04-03T05:51:47.694Z,-1.18
2023-04-03T05:54:59.847Z,-1.01
2023-04-03T05:58:06.015Z,-0.97
2023-04-03T06:01:09.882Z,-0.73
2023-04-03T06:04:14.685Z,-0.47
2023-04-03T06:07:25.654Z,-0.17
2023-04-03T06:10:29.850Z,-0.80
2023-04-03T06:13:35.255Z,-1.03
2023-04-03T06:16:39.965Z,-0.93
2023-04-03T06:19:46.357Z,-1.13
2023-04-03T06:22:50.953Z,-1.27
2023-04-03T06:25:57.324Z,-1.27
2023-04-03T06:29:00.607Z,-1.08
2023-04-03T06:32:03.974Z,-1.03
2023-04-03T06:35:08.348Z,-0.94
2023-04-03T06:38:11.683Z,-0.77
2023-04-03T06:41:15.056Z,-0.76
2023-04-03T06:44:18.832Z,-0.58
2023-04-03T06:47:22.114Z,-0.66
2023-04-03T06:50:25.721Z,-1.03
2023-04-03T06:53:29.196Z,-1.24
2023-04-03T06:56:34.517Z,-1.30
2023-04-03T06:59:38.206Z,-1.00
2023-04-03T07:02:41.789Z,-0.65
2023-04-03T07:05:50.638Z,-0.76
2023-04-03T07:08:57.271Z,-0.86
2023-04-03T07:12:00.592Z,-0.96
2023-04-03T07:15:04.993Z,-1.03
2023-04-03T07:18:09.342Z,-0.93
2023-04-03T07:21:13.077Z,-0.92
2023-04-03T07:24:16.943Z,-0.83
2023-04-03T07:27:20.699Z,-0.68
2023-04-03T07:30:27.263Z,-0.58
2023-04-03T07:33:32.914Z,-0.93
2023-04-03T07:36:39.233Z,-1.20
2023-04-03T07:39:46.680Z,-1.15
2023-04-03T07:42:50.061Z,-1.21
2023-04-03T07:45:53.835Z,-1.20
2023-04-03T07:48:58.551Z,-1.04
2023-04-03T07:52:02.084Z,-1.08
2023-04-03T07:55:07.830Z,-0.90
2023-04-03T07:58:16.217Z,-0.94
2023-04-03T08:01:19.540Z,-0.89
2023-04-03T08:04:23.000Z,-0.69
2023-04-03T08:07:26.978Z,-0.77
2023-04-03T08:10:33.126Z,-0.65
2023-04-03T08:13:39.905Z,-0.73
2023-04-03T08:16:43.604Z,-0.58
2023-04-03T08:19:47.211Z,-0.42
2023-04-03T08:22:50.599Z,-0.55
2023-04-03T08:25:54.137Z,-0.73
2023-04-03T08:28:57.431Z,-0.52
2023-04-03T08:32:00.730Z,-0.54
2023-04-03T08:35:05.727Z,-0.75
2023-04-03T08:38:10.281Z,-0.77
2023-04-03T08:41:17.672Z,-0.73
2023-04-03T08:44:31.794Z,-0.92
2023-04-03T08:47:52.964Z,-0.77
2023-04-03T08:51:10.946Z,-0.69
2023-04-03T08:54:49.818Z,-0.80
2023-04-03T08:58:07.067Z,-0.97
2023-04-03T09:01:25.071Z,-0.97
2023-04-03T09:04:34.309Z,-1.10
2023-04-03T09:07:52.751Z,-1.08
2023-04-03T09:11:18.583Z,-1.01
2023-04-03T09:14:31.186Z,-1.11
2023-04-03T09:17:37.488Z,-1.18
2023-04-03T09:21:09.008Z,-1.22
2023-04-03T09:24:17.130Z,-1.21
2023-04-03T09:27:48.291Z,-1.31
2023-04-03T09:30:54.297Z,-1.38
2023-04-03T09:34:04.443Z,-1.66
2023-04-03T09:37:29.921Z,-1.60
2023-04-03T09:40:36.835Z,-1.63
2023-04-03T09:43:40.607Z,-1.63
2023-04-03T09:46:44.632Z,-1.79
2023-04-03T09:49:47.950Z,-1.83
2023-04-03T09:52:55.617Z,-1.91
2023-04-03T09:56:00.015Z,-1.87
2023-04-03T09:59:07.735Z,-2.05
2023-04-03T10:02:13.731Z,-2.22
2023-04-03T10:05:39.600Z,-2.30
2023-04-03T10:08:43.023Z,-2.32
2023-04-03T10:12:08.903Z,-2.38
2023-04-03T10:15:18.738Z,-2.40
2023-04-03T10:18:48.608Z,-2.51
2023-04-03T10:22:00.868Z,-2.63
2023-04-03T10:25:06.866Z,-2.60
2023-04-03T10:28:31.135Z,-2.66
2023-04-03T10:31:50.748Z,-2.65
2023-04-03T10:35:19.947Z,-2.70
2023-04-03T10:38:28.768Z,-2.79
2023-04-03T10:41:39.595Z,-2.76
2023-04-03T10:45:05.987Z,-2.81
2023-04-03T10:48:21.499Z,-2.94
2023-04-03T10:51:47.282Z,-2.98
2023-04-03T10:55:04.266Z,-3.07
2023-04-03T10:58:13.058Z,-3.12
2023-04-03T11:01:23.448Z,-3.16
2023-04-03T11:04:30.873Z,-3.19
2023-04-03T11:07:49.581Z,-3.19
2023-04-03T11:10:58.474Z,-3.18
2023-04-03T11:17:45.944Z,-3.21
2023-04-03T11:21:50.695Z,-3.24
2023-04-03T11:25:04.323Z,-3.27
2023-04-03T11:28:15.129Z,-3.32
2023-04-03T11:31:37.415Z,-3.32
2023-04-03T11:34:44.947Z,-3.35
2023-04-03T11:37:52.893Z,-3.36
2023-04-03T11:40:58.437Z,-3.38
2023-04-03T11:44:07.756Z,-3.38
2023-04-03T11:47:34.281Z,-3.42
2023-04-03T11:50:44.171Z,-3.42
2023-04-03T11:53:47.537Z,-3.46
2023-04-03T11:56:50.836Z,-3.48
2023-04-03T11:59:54.149Z,-3.53
2023-04-03T12:02:57.658Z,-3.55
2023-04-03T12:06:17.158Z,-3.56
2023-04-03T12:09:57.126Z,-3.63
2023-04-03T12:13:04.085Z,-3.67
2023-04-03T12:16:30.107Z,-3.76
2023-04-03T12:19:45.161Z,-3.88
2023-04-03T12:23:24.879Z,-3.90
2023-04-03T12:26:38.740Z,-3.97
2023-04-03T12:30:23.514Z,-3.99
2023-04-03T12:33:59.410Z,-4.05
2023-04-03T12:37:11.275Z,-4.12
2023-04-03T12:40:44.789Z,-4.15
2023-04-03T12:44:13.368Z,-4.15
2023-04-03T12:47:31.111Z,-4.16
2023-04-03T12:50:35.526Z,-4.22
2023-04-03T12:53:44.515Z,-4.19
2023-04-03T12:56:48.579Z,-4.25
2023-04-03T12:59:51.891Z,-4.32
2023-04-03T13:02:55.587Z,-4.30
2023-04-03T13:06:05.607Z,-4.39
2023-04-03T13:09:25.682Z,-4.43
2023-04-03T13:12:31.137Z,-4.41
2023-04-03T13:15:50.693Z,-4.45
2023-04-03T13:18:56.142Z,-4.48
2023-04-03T13:22:06.803Z,-4.50
2023-04-03T13:25:12.701Z,-4.53
2023-04-03T13:28:22.000Z,-4.52
2023-04-03T13:31:29.610Z,-4.57
2023-04-03T13:34:47.569Z,-4.62
2023-04-03T13:37:59.939Z,-4.60
2023-04-03T13:41:27.627Z,-4.63
2023-04-03T13:44:35.213Z,-4.70
2023-04-03T13:47:44.071Z,-4.71
2023-04-03T13:51:14.281Z,-4.74
2023-04-03T13:54:25.989Z,-4.77
2023-04-03T13:57:29.943Z,-4.83
2023-04-03T14:00:58.452Z,-4.87
2023-04-03T14:04:14.770Z,-4.92
2023-04-03T14:07:22.992Z,-4.99
2023-04-03T14:10:28.754Z,-5.08
2023-04-03T14:13:35.587Z,-5.15
2023-04-03T14:16:42.509Z,-5.15
2023-04-03T14:19:47.031Z,-5.22
2023-04-03T14:23:00.062Z,-5.25
2023-04-03T14:26:31.936Z,-5.28
2023-04-03T14:29:35.236Z,-5.29
2023-04-03T14:32:43.155Z,-5.30
2023-04-03T14:35:48.739Z,-5.33
2023-04-03T14:38:57.070Z,-5.39
2023-04-03T14:42:27.512Z,-5.39
2023-04-03T14:45:35.563Z,-5.42
2023-04-03T14:48:41.055Z,-5.44
2023-04-03T14:51:51.591Z,-5.47
2023-04-03T14:54:56.034Z,-5.54
2023-04-03T14:58:01.089Z,-5.57
2023-04-03T15:01:29.947Z,-5.63
2023-04-03T15:04:33.598Z,-5.66
2023-04-03T15:08:05.604Z,-5.67
2023-04-03T15:11:17.128Z,-5.67
2023-04-03T15:14:35.204Z,-5.71
2023-04-03T15:17:44.407Z,-5.74
2023-04-03T15:20:51.669Z,-5.77
2023-04-03T15:24:04.995Z,-5.75
2023-04-03T15:27:13.526Z,-5.81
2023-04-03T15:30:22.558Z,-5.87
2023-04-03T15:33:29.552Z,-5.88
2023-04-03T15:36:38.191Z,-5.88
2023-04-03T15:39:41.599Z,-5.91
2023-04-03T15:42:44.863Z,-5.94
2023-04-03T15:46:14.338Z,-5.94
2023-04-03T15:49:22.983Z,-5.94
2023-04-03T15:52:26.205Z,-5.97
2023-04-03T15:55:34.870Z,-6.02
2023-04-03T15:58:43.157Z,-6.05
2023-04-03T16:01:50.093Z,-6.08
2023-04-03T16:04:59.068Z,-6.12
2023-04-03T16:08:19.497Z,-6.13
2023-04-03T16:11:27.911Z,-6.19
2023-04-03T16:14:43.540Z,-6.29
2023-04-03T16:17:53.236Z,-6.33
2023-04-03T16:20:56.836Z,-6.37
2023-04-03T16:24:01.201Z,-6.41
2023-04-03T16:27:10.270Z,-6.40
2023-04-03T16:30:13.988Z,-6.40
2023-04-03T16:33:23.118Z,-6.46
2023-04-03T16:36:32.144Z,-6.48
2023-04-03T16:39:56.696Z,-6.51
2023-04-03T16:43:04.373Z,-6.51
2023-04-03T16:46:11.132Z,-6.51
2023-04-03T16:49:17.897Z,-6.53
2023-04-03T16:52:28.277Z,-6.54
2023-04-03T16:55:34.361Z,-6.56
2023-04-03T16:58:39.270Z,-6.57
2023-04-03T17:01:42.614Z,-6.57
2023-04-03T17:04:57.902Z,-6.58
2023-04-03T17:08:06.749Z,-6.63
2023-04-03T17:11:12.694Z,-6.63
2023-04-03T17:14:19.397Z,-6.64
2023-04-03T17:17:28.456Z,-6.64
2023-04-03T17:20:59.569Z,-6.67
2023-04-03T17:24:10.006Z,-6.68
2023-04-03T17:27:22.391Z,-6.73
2023-04-03T17:30:28.971Z,-6.73
2023-04-03T17:33:36.385Z,-6.75
2023-04-03T17:37:05.322Z,-6.78
2023-04-03T17:40:15.758Z,-6.80
2023-04-03T17:43:22.298Z,-6.78
2023-04-03T17:46:32.483Z,-6.81
2023-04-03T17:49:40.307Z,-6.85
2023-04-03T17:52:43.971Z,-6.85
2023-04-03T17:55:50.144Z,-6.89
2023-04-03T17:59:12.934Z,-6.88
2023-04-03T18:02:21.532Z,-6.91
2023-04-03T18:05:29.856Z,-6.94
2023-04-03T18:08:39.536Z,-6.94
2023-04-03T18:11:57.018Z,-6.94
2023-04-03T18:15:04.882Z,-6.98
2023-04-03T18:18:08.153Z,-6.99
2023-04-03T18:21:15.955Z,-6.99
2023-04-03T18:24:36.290Z,-7.02
2023-04-03T18:27:40.520Z,-7.03
2023-04-03T18:30:44.247Z,-7.05
2023-04-03T18:33:54.684Z,-7.08
2023-04-03T18:37:24.976Z,-7.06
2023-04-03T18:40:53.713Z,-7.09
2023-04-03T18:44:06.167Z,-7.08
2023-04-03T18:47:13.968Z,-7.13
2023-04-03T18:50:23.107Z,-7.09
2023-04-03T18:53:26.521Z,-7.06
2023-04-03T18:56:37.057Z,-7.08
2023-04-03T18:59:48.731Z,-7.12
2023-04-03T19:03:07.645Z,-7.13
2023-04-03T19:06:14.095Z,-7.15
2023-04-03T19:09:17.652Z,-7.16
2023-04-03T19:12:22.625Z,-7.19
2023-04-03T19:15:26.876Z,-7.23
2023-04-03T19:18:55.153Z,-7.22
2023-04-03T19:22:01.419Z,-7.26
2023-04-03T19:25:06.956Z,-7.29
2023-04-03T19:28:35.319Z,-7.33
2023-04-03T19:31:39.519Z,-7.34
2023-04-03T19:34:48.775Z,-7.34
2023-04-03T19:38:17.174Z,-7.37
2023-04-03T19:41:24.333Z,-7.39
2023-04-03T19:44:28.075Z,-7.40
2023-04-03T19:47:35.976Z,-7.40
2023-04-03T19:51:06.569Z,-7.44
2023-04-03T19:54:18.873Z,-7.44
2023-04-03T19:57:27.892Z,-7.46
2023-04-03T20:00:34.298Z,-7.47
2023-04-03T20:03:40.875Z,-7.52
2023-04-03T20:06:51.335Z,-7.54
2023-04-03T20:09:59.008Z,-7.58
2023-04-03T20:13:02.412Z,-7.65
2023-04-03T20:16:57.872Z,-7.71
2023-04-03T20:20:03.141Z,-7.79
2023-04-03T20:23:11.804Z,-7.84
2023-04-03T20:26:25.172Z,-7.92
2023-04-03T20:29:36.022Z,-7.92
2023-04-03T20:32:43.928Z,-7.94
2023-04-03T20:35:52.152Z,-7.88
2023-04-03T20:38:58.545Z,-7.82
2023-04-03T20:42:05.049Z,-7.79
2023-04-03T20:45:08.925Z,-7.81
2023-04-03T20:48:37.716Z,-7.89
2023-04-03T20:51:44.744Z,-7.94
2023-04-03T20:54:48.081Z,-7.92
2023-04-03T20:58:06.692Z,-7.96
2023-04-03T21:01:24.491Z,-7.98
2023-04-03T21:04:47.131Z,-8.02
2023-04-03T21:08:28.043Z,-8.03
2023-04-03T21:12:08.378Z,-8.02
2023-04-03T21:15:52.861Z,-8.03
2023-04-03T21:19:20.586Z,-8.06
2023-04-03T21:22:25.804Z,-8.12
2023-04-03T21:25:38.090Z,-8.16
2023-04-03T21:29:31.131Z,-8.19
2023-04-03T21:32:34.615Z,-8.19
2023-04-03T21:35:37.912Z,-8.22
2023-04-03T21:39:06.390Z,-8.22
2023-04-03T21:42:14.209Z,-8.26
2023-04-03T21:45:17.781Z,-8.29
2023-04-03T21:49:23.940Z,-8.31
2023-04-03T21:52:39.280Z,-8.36
2023-04-03T21:55:42.594Z,-8.34
2023-04-03T21:59:03.575Z,-8.34
2023-04-03T22:02:07.102Z,-8.26
2023-04-03T22:05:13.091Z,-8.19
2023-04-03T22:08:17.156Z,-8.13
2023-04-03T22:11:23.102Z,-8.06
2023-04-03T22:14:26.403Z,-7.99
2023-04-03T22:17:33.605Z,-7.95
2023-04-03T22:20:37.073Z,-7.85
2023-04-03T22:23:40.330Z,-7.79
2023-04-03T22:26:45.262Z,-7.73
2023-04-03T22:29:51.514Z,-7.64
2023-04-03T22:33:03.776Z,-7.57
2023-04-03T22:36:08.418Z,-7.46
2023-04-03T22:39:15.921Z,-7.43
2023-04-03T22:42:49.026Z,-7.39
2023-04-03T22:45:55.818Z,-6.78
2023-04-03T22:49:24.994Z,-5.36
2023-04-03T22:52:43.599Z,-4.15
2023-04-03T22:56:11.857Z,-3.74
2023-04-03T22:59:15.436Z,-3.11
2023-04-03T23:02:18.883Z,-2.07
2023-04-03T23:05:29.135Z,-1.82
2023-04-03T23:08:41.622Z,-0.83
2023-04-03T23:11:49.075Z,0.15
2023-04-03T23:14:53.347Z,1.24
2023-04-03T23:18:00.456Z,1.69
2023-04-03T23:21:04.659Z,1.73
2023-04-03T23:24:10.811Z,1.93
2023-04-03T23:27:39.908Z,1.89
2023-04-03T23:30:48.833Z,2.32
2023-04-03T23:34:16.666Z,2.56
2023-04-03T23:37:27.980Z,3.28
2023-04-03T23:40:35.321Z,3.64
2023-04-03T23:43:51.310Z,3.97
2023-04-03T23:47:20.259Z,4.22
2023-04-03T23:50:46.413Z,4.62
2023-04-03T23:53:51.822Z,5.36
2023-04-03T23:56:58.187Z,5.71
